createdAt,value
2019-04-22T20:47:13.374Z,2.47
2019-04-22T20:49:47.148Z,2.52
2019-04-22T20:54:44.894Z,2.40
2019-04-22T20:57:15.404Z,2.30
2019-04-22T20:59:47.462Z,2.47
2019-04-22T21:02:14.116Z,2.05
2019-04-22T21:04:40.866Z,2.33
2019-04-22T21:07:09.546Z,2.40
2019-04-22T21:09:43.119Z,2.25
2019-04-22T21:12:12.196Z,2.37
2019-04-22T21:14:51.407Z,2.55
2019-04-22T21:17:17.277Z,2.55
2019-04-22T21:19:56.748Z,2.85
2019-04-22T21:22:15.689Z,2.50
2019-04-22T21:24:45.976Z,2.77
2019-04-22T21:27:22.214Z,2.50
2019-04-22T21:29:39.880Z,2.58
2019-04-22T21:32:21.396Z,2.60
2019-04-22T21:34:55.386Z,2.50
2019-04-22T21:37:20.565Z,2.60
2019-04-22T21:39:41.128Z,2.70
2019-04-22T21:42:12.689Z,2.58
2019-04-22T21:44:45.620Z,2.72
2019-04-22T21:47:20.681Z,2.83
2019-04-22T21:49:51.446Z,2.85
2019-04-22T21:52:21.487Z,2.75
2019-04-22T21:54:53.628Z,2.55
2019-04-22T21:57:39.992Z,2.90
2019-04-22T21:59:57.935Z,2.77
2019-04-22T22:02:28.393Z,2.77
2019-04-22T22:04:51.230Z,3.08
2019-04-22T22:07:13.222Z,2.95
2019-04-22T22:09:53.968Z,3.15
2019-04-22T22:12:26.523Z,3.27
2019-04-22T22:15:00.532Z,3.00
2019-04-22T22:17:22.395Z,3.10
2019-04-22T22:19:54.440Z,3.15
2019-04-22T22:22:42.237Z,3.50
2019-04-22T22:25:00.019Z,3.60
2019-04-22T22:27:25.518Z,3.45
2019-04-22T22:30:16.412Z,3.37
2019-04-22T22:32:30.345Z,3.27
2019-04-22T22:34:58.754Z,3.80
2019-04-22T22:37:16.915Z,3.60
2019-04-22T22:39:48.439Z,3.42
2019-04-22T22:42:10.926Z,3.62
2019-04-22T22:44:42.188Z,4.50
2019-04-22T22:47:23.866Z,4.42
2019-04-22T22:50:00.785Z,3.72
2019-04-22T22:55:00.497Z,4.12
2019-04-22T22:57:33.515Z,4.62
2019-04-22T22:59:55.457Z,4.15
2019-04-22T23:02:28.657Z,4.65
2019-04-22T23:04:57.507Z,4.33
2019-04-22T23:07:28.899Z,4.30
2019-04-22T23:10:01.998Z,4.10
2019-04-22T23:12:34.656Z,4.70
2019-04-22T23:14:56.120Z,4.10
2019-04-22T23:17:11.723Z,4.00
2019-04-22T23:19:41.918Z,4.12
2019-04-22T23:22:20.576Z,4.00
2019-04-22T23:24:54.315Z,3.85
2019-04-22T23:27:29.084Z,4.22
2019-04-22T23:29:57.539Z,4.35
2019-04-22T23:32:31.992Z,4.62
2019-04-22T23:35:09.735Z,4.50
2019-04-22T23:37:39.363Z,4.53
2019-04-22T23:40:16.175Z,4.40
2019-04-22T23:42:44.450Z,4.40
2019-04-22T23:45:15.470Z,4.50
2019-04-22T23:47:35.599Z,4.53
2019-04-22T23:50:18.460Z,4.87
2019-04-22T23:52:51.193Z,5.30
2019-04-22T23:55:17.748Z,4.60
2019-04-22T23:57:48.415Z,4.95
